LEZL/SVQ METAR and TAF weather

Enter ICAO airport designator
Station Type Date Time Source
LEZL METAR 2019/12/09 13:30 UTC NOAA

LEZL 091330Z 02003KT 340V060 9999 BKN030 17/12 Q1029 NOSIG


Station Type Date Time Source
LEZL Decoded METAR 2019/12/09 13:30 UTC NOAA

Sevilla / San Pablo, Spain (LEZL) 37-25N 005-54W 31M
Dec 09, 2019 - 08:30 AM EST / 2019.12.09 1330 UTC
Wind: from the NNE (020 degrees) at 3 MPH (3 KT) (direction variable):0
Visibility: greater than 7 mile(s):0
Sky conditions: mostly cloudy
Temperature: 62 F (17 C)
Dew Point: 53 F (12 C)
Relative Humidity: 72%
Pressure (altimeter): 30.39 in. Hg (1029 hPa)
ob: LEZL 091330Z 02003KT 340V060 9999 BKN030 17/12 Q1029 NOSIG
cycle: 13

Station Type Date Time Source
LEZL TAF 2019/12/09 09:27 UTC NOAA

TAF LEZL 090800Z 0909/1009 VRB03KT 9999 BKN035 TX19/0915Z TN07/1007Z

Example: see airport list